IWY301 MDSD-TNCC
Flight info
| Callsign | IWY301 |
|---|---|
| Flight time | N/A |
| Altitude | 40000 |
| Route | KARUM2L KARUM KARUM1B |
| Aircraft | CRJ7/M-SDFGIRWY/S |
Departure
| Time | N/A |
|---|---|
| Airport | Las Américas International Airport (MDSD) |
Arrival
| Time | 2026-04-16 04:48 |
|---|---|
| Airport | Hato International Airport (TNCC) |
| Time | Latitude | Longitude | Altitude | Speed | Heading |
|---|---|---|---|---|---|
| 2026-04-16 04:34 | 12.86477 | -69.19010 | 10812 ft | 285 kts | 178° |
| 2026-04-16 04:34 | 12.84518 | -69.18902 | 10458 ft | 281 kts | 178° |
| 2026-04-16 04:34 | 12.82589 | -69.18790 | 10122 ft | 282 kts | 177° |
| 2026-04-16 04:35 | 12.80621 | -69.18672 | 9767 ft | 283 kts | 176° |
| 2026-04-16 04:35 | 12.78655 | -69.18538 | 9410 ft | 282 kts | 176° |
| 2026-04-16 04:35 | 12.76703 | -69.18408 | 9132 ft | 279 kts | 176° |
| 2026-04-16 04:35 | 12.74776 | -69.18281 | 8855 ft | 276 kts | 176° |
| 2026-04-16 04:36 | 12.72868 | -69.18155 | 8580 ft | 273 kts | 176° |
| 2026-04-16 04:36 | 12.70979 | -69.18016 | 8307 ft | 270 kts | 175° |
| 2026-04-16 04:36 | 12.69109 | -69.17888 | 8044 ft | 268 kts | 176° |
| 2026-04-16 04:36 | 12.67257 | -69.17769 | 7760 ft | 265 kts | 176° |
| 2026-04-16 04:37 | 12.65425 | -69.17648 | 7505 ft | 263 kts | 176° |
| 2026-04-16 04:37 | 12.63595 | -69.17528 | 7262 ft | 262 kts | 175° |
| 2026-04-16 04:37 | 12.61798 | -69.17409 | 7042 ft | 262 kts | 176° |
| 2026-04-16 04:37 | 12.59951 | -69.17287 | 6799 ft | 266 kts | 175° |
| 2026-04-16 04:38 | 12.58109 | -69.17167 | 6572 ft | 272 kts | 175° |
| 2026-04-16 04:38 | 12.56199 | -69.17049 | 6349 ft | 277 kts | 176° |
| 2026-04-16 04:38 | 12.54287 | -69.16931 | 6105 ft | 272 kts | 175° |
| 2026-04-16 04:38 | 12.52414 | -69.16823 | 5863 ft | 267 kts | 175° |
| 2026-04-16 04:39 | 12.50579 | -69.16720 | 5616 ft | 262 kts | 175° |
| 2026-04-16 04:39 | 12.48778 | -69.16608 | 5355 ft | 257 kts | 174° |
| 2026-04-16 04:39 | 12.47004 | -69.16498 | 5110 ft | 253 kts | 174° |
| 2026-04-16 04:39 | 12.45259 | -69.16392 | 4865 ft | 252 kts | 174° |
| 2026-04-16 04:40 | 12.43492 | -69.16287 | 4683 ft | 257 kts | 174° |
| 2026-04-16 04:40 | 12.41693 | -69.16178 | 4490 ft | 261 kts | 174° |
| 2026-04-16 04:40 | 12.40483 | -69.16107 | 4356 ft | 263 kts | 174° |
| 2026-04-16 04:40 | 12.38649 | -69.16000 | 4152 ft | 266 kts | 174° |
| 2026-04-16 04:41 | 12.36795 | -69.15888 | 3975 ft | 267 kts | 173° |
| 2026-04-16 04:41 | 12.34972 | -69.15783 | 3753 ft | 256 kts | 174° |
| 2026-04-16 04:41 | 12.32696 | -69.15660 | 3445 ft | 239 kts | 174° |
| 2026-04-16 04:41 | 12.31588 | -69.15601 | 3294 ft | 232 kts | 174° |
| 2026-04-16 04:42 | 12.30011 | -69.15522 | 3034 ft | 223 kts | 174° |
| 2026-04-16 04:42 | 12.28482 | -69.15438 | 2781 ft | 224 kts | 173° |
| 2026-04-16 04:42 | 12.26916 | -69.15344 | 2541 ft | 226 kts | 173° |
| 2026-04-16 04:42 | 12.25340 | -69.15256 | 2316 ft | 228 kts | 173° |
| 2026-04-16 04:43 | 12.23853 | -69.14870 | 2074 ft | 214 kts | 142° |
| 2026-04-16 04:43 | 12.22951 | -69.13749 | 1908 ft | 199 kts | 117° |
| 2026-04-16 04:43 | 12.22365 | -69.12522 | 1801 ft | 186 kts | 108° |
| 2026-04-16 04:43 | 12.22007 | -69.11276 | 1678 ft | 182 kts | 101° |
| 2026-04-16 04:44 | 12.21747 | -69.10022 | 1555 ft | 176 kts | 99° |
| 2026-04-16 04:44 | 12.21526 | -69.08833 | 1429 ft | 165 kts | 98° |
| 2026-04-16 04:44 | 12.21323 | -69.07704 | 1291 ft | 159 kts | 98° |
| 2026-04-16 04:44 | 12.21108 | -69.06556 | 1179 ft | 167 kts | 99° |
| 2026-04-16 04:45 | 12.20884 | -69.05396 | 1064 ft | 165 kts | 101° |
| 2026-04-16 04:45 | 12.20651 | -69.04315 | 998 ft | 138 kts | 101° |
| 2026-04-16 04:45 | 12.20446 | -69.03444 | 1019 ft | 124 kts | 99° |
| 2026-04-16 04:45 | 12.20275 | -69.02583 | 968 ft | 123 kts | 99° |
| 2026-04-16 04:46 | 12.20089 | -69.01718 | 923 ft | 126 kts | 100° |
| 2026-04-16 04:46 | 12.19908 | -69.00850 | 876 ft | 127 kts | 101° |
| 2026-04-16 04:46 | 12.19727 | -68.99957 | 761 ft | 128 kts | 100° |
| 2026-04-16 04:46 | 12.19533 | -68.99059 | 639 ft | 132 kts | 98° |
| 2026-04-16 04:47 | 12.19352 | -68.98143 | 404 ft | 128 kts | 100° |
| 2026-04-16 04:47 | 12.19166 | -68.97265 | 197 ft | 128 kts | 100° |
| 2026-04-16 04:47 | 12.18981 | -68.96395 | 49 ft | 116 kts | 101° |
| 2026-04-16 04:47 | 12.18841 | -68.95742 | 40 ft | 66 kts | 102° |
| 2026-04-16 04:48 | 12.18769 | -68.95429 | 40 ft | 27 kts | 119° |
| 2026-04-16 04:48 | 12.18664 | -68.95414 | 40 ft | 9 kts | 194° |
| 2026-04-16 04:48 | 12.18620 | -68.95441 | 41 ft | 7 kts | 239° |
| 2026-04-16 04:48 | 12.18611 | -68.95496 | 41 ft | 9 kts | 277° |
| 2026-04-16 04:49 | 12.18604 | -68.95545 | 41 ft | 6 kts | 206° |
| 2026-04-16 04:49 | 12.18571 | -68.95546 | 41 ft | 5 kts | 198° |
| 2026-04-16 04:49 | 12.18536 | -68.95562 | 41 ft | 6 kts | 205° |
| 2026-04-16 04:49 | 12.18526 | -68.95567 | 41 ft | 0 kts | 204° |